createdAt,value
2023-04-27T00:00:51.253Z,5.05
2023-04-27T00:01:51.310Z,5.12
2023-04-27T00:02:51.405Z,5.05
2023-04-27T00:03:51.318Z,4.97
2023-04-27T00:04:51.460Z,4.97
2023-04-27T00:05:51.318Z,5.02
2023-04-27T00:06:51.233Z,4.89
2023-04-27T00:07:51.214Z,4.97
2023-04-27T00:08:51.224Z,4.86
2023-04-27T00:09:51.185Z,4.92
2023-04-27T00:10:51.849Z,4.93
2023-04-27T00:11:51.205Z,4.97
2023-04-27T00:12:51.208Z,4.94
2023-04-27T00:13:51.165Z,4.90
2023-04-27T00:14:51.140Z,4.93
2023-04-27T00:15:51.171Z,4.97
2023-04-27T00:16:51.170Z,4.97
2023-04-27T00:17:51.907Z,4.96
2023-04-27T00:18:51.147Z,5.00
2023-04-27T00:19:51.122Z,4.94
2023-04-27T00:20:51.101Z,4.94
2023-04-27T00:21:51.100Z,4.96
2023-04-27T00:22:51.089Z,4.96
2023-04-27T00:23:51.100Z,4.87
2023-04-27T00:24:51.052Z,4.92
2023-04-27T00:25:51.065Z,4.90
2023-04-27T00:26:51.847Z,4.97
2023-04-27T00:27:51.035Z,4.87
2023-04-27T00:28:51.093Z,4.90
2023-04-27T00:29:51.030Z,4.93
2023-04-27T00:30:51.033Z,4.90
2023-04-27T00:31:51.074Z,4.96
2023-04-27T00:32:51.131Z,4.89
2023-04-27T00:33:51.007Z,4.97
2023-04-27T00:34:51.032Z,4.94
2023-04-27T00:35:50.973Z,4.96
2023-04-27T00:36:51.908Z,4.93
2023-04-27T00:37:51.015Z,4.87
2023-04-27T00:38:50.982Z,4.92
2023-04-27T00:39:50.967Z,4.90
2023-04-27T00:40:50.971Z,4.89
2023-04-27T00:41:50.926Z,4.90
2023-04-27T00:42:50.927Z,4.90
2023-04-27T00:43:50.962Z,4.97
2023-04-27T00:44:50.919Z,4.99
2023-04-27T00:45:50.968Z,4.94
2023-04-27T00:46:50.932Z,4.99
2023-04-27T00:47:50.935Z,5.08
2023-04-27T00:48:50.903Z,4.99
2023-04-27T00:49:50.934Z,5.04
2023-04-27T00:50:51.754Z,5.07
2023-04-27T00:51:50.912Z,5.11
2023-04-27T00:52:50.857Z,5.12
2023-04-27T00:53:50.846Z,5.15
2023-04-27T00:54:50.837Z,5.15
2023-04-27T00:55:50.854Z,5.15
2023-04-27T00:56:50.852Z,5.04
2023-04-27T00:57:50.853Z,5.10
2023-04-27T00:58:50.817Z,5.05
2023-04-27T00:59:50.844Z,4.99
2023-04-27T01:00:50.929Z,5.08
2023-04-27T01:01:50.842Z,5.07
2023-04-27T01:02:50.986Z,5.07
2023-04-27T01:03:50.945Z,5.10
2023-04-27T01:04:50.867Z,5.04
2023-04-27T01:05:50.775Z,4.99
2023-04-27T01:06:50.782Z,5.02
2023-04-27T01:07:50.751Z,5.12
2023-04-27T01:08:50.740Z,4.97
2023-04-27T01:09:50.742Z,4.92
2023-04-27T01:10:50.734Z,4.96
2023-04-27T01:11:50.744Z,4.94
2023-04-27T01:12:50.745Z,4.93
2023-04-27T01:13:50.716Z,4.86
2023-04-27T01:14:50.685Z,5.00
2023-04-27T01:15:50.686Z,4.94
2023-04-27T01:16:50.747Z,5.00
2023-04-27T01:17:50.719Z,5.02
2023-04-27T01:18:50.651Z,5.07
2023-04-27T01:19:50.647Z,5.08
2023-04-27T01:20:50.672Z,5.08
2023-04-27T01:21:50.650Z,5.00
2023-04-27T01:22:50.668Z,5.07
2023-04-27T01:23:50.635Z,5.05
2023-04-27T01:24:50.629Z,5.11
2023-04-27T01:25:50.624Z,5.08
2023-04-27T01:26:50.598Z,5.02
2023-04-27T01:27:51.396Z,5.11
2023-04-27T01:28:50.595Z,5.10
2023-04-27T01:29:50.603Z,5.14
2023-04-27T01:30:50.627Z,5.17
2023-04-27T01:31:50.558Z,5.21
2023-04-27T01:32:50.699Z,5.17
2023-04-27T01:33:50.538Z,5.21
2023-04-27T01:34:50.538Z,5.25
2023-04-27T01:35:50.557Z,5.15
2023-04-27T01:36:50.526Z,5.30
2023-04-27T01:37:50.534Z,5.30
2023-04-27T01:38:50.517Z,5.30
2023-04-27T01:39:50.541Z,5.28
2023-04-27T01:40:50.516Z,5.35
2023-04-27T01:41:50.495Z,5.33
2023-04-27T01:42:50.479Z,5.41
2023-04-27T01:43:51.202Z,5.32
2023-04-27T01:44:50.521Z,5.29
2023-04-27T01:45:50.486Z,5.39
2023-04-27T01:46:50.515Z,5.41
2023-04-27T01:47:50.490Z,5.41
2023-04-27T01:48:50.447Z,5.26
2023-04-27T01:49:50.451Z,5.50
2023-04-27T01:50:50.428Z,5.36
2023-04-27T01:51:50.436Z,5.38
2023-04-27T01:52:50.420Z,5.44
2023-04-27T01:53:50.929Z,5.47
2023-04-27T01:54:50.403Z,5.43
2023-04-27T01:55:50.395Z,5.44
2023-04-27T01:56:50.395Z,5.46
2023-04-27T01:57:50.369Z,5.44
2023-04-27T01:58:50.400Z,5.44
2023-04-27T01:59:50.387Z,5.43
2023-04-27T02:00:50.346Z,5.48
2023-04-27T02:01:50.380Z,5.48
2023-04-27T02:02:50.528Z,5.47
2023-04-27T02:03:51.119Z,5.44
2023-04-27T02:04:50.471Z,5.43
2023-04-27T02:05:50.392Z,5.46
2023-04-27T02:06:50.340Z,5.43
2023-04-27T02:07:50.303Z,5.48
2023-04-27T02:08:50.297Z,5.43
2023-04-27T02:09:50.290Z,5.43
2023-04-27T02:10:50.301Z,5.50
2023-04-27T02:11:50.283Z,5.48
2023-04-27T02:12:51.268Z,5.43
2023-04-27T02:13:50.314Z,5.43
2023-04-27T02:14:50.241Z,5.36
2023-04-27T02:15:50.308Z,5.36
2023-04-27T02:16:50.226Z,5.46
2023-04-27T02:17:50.268Z,5.46
2023-04-27T02:18:50.244Z,5.36
2023-04-27T02:19:50.262Z,5.41
2023-04-27T02:20:50.235Z,5.32
2023-04-27T02:21:50.206Z,5.32
2023-04-27T02:22:50.190Z,5.21
2023-04-27T02:23:50.179Z,5.28
2023-04-27T02:24:50.184Z,5.25
2023-04-27T02:25:50.199Z,5.21
2023-04-27T02:26:50.167Z,5.25
2023-04-27T02:27:50.179Z,5.26
2023-04-27T02:28:50.220Z,5.25
2023-04-27T02:29:50.160Z,5.36
2023-04-27T02:30:50.132Z,5.38
2023-04-27T02:31:50.159Z,5.21
2023-04-27T02:32:50.191Z,5.29
2023-04-27T02:33:50.105Z,5.35
2023-04-27T02:34:50.105Z,5.38
2023-04-27T02:35:50.086Z,5.33
2023-04-27T02:36:50.089Z,5.43
2023-04-27T02:37:50.113Z,5.35
2023-04-27T02:38:50.113Z,5.29
2023-04-27T02:39:50.068Z,5.30
2023-04-27T02:40:50.046Z,5.28
2023-04-27T02:41:50.052Z,5.26
2023-04-27T02:42:50.056Z,5.23
2023-04-27T02:43:50.055Z,5.32
2023-04-27T02:44:50.039Z,5.21
2023-04-27T02:45:50.020Z,5.29
2023-04-27T02:46:50.068Z,5.26
2023-04-27T02:47:51.033Z,5.18
2023-04-27T02:48:50.014Z,5.14
2023-04-27T02:49:49.993Z,5.15
2023-04-27T02:50:49.983Z,5.15
2023-04-27T02:51:49.987Z,5.17
2023-04-27T02:52:49.969Z,5.15
2023-04-27T02:53:49.964Z,5.10
2023-04-27T02:54:49.962Z,5.20
2023-04-27T02:55:49.933Z,5.07
2023-04-27T02:56:49.922Z,5.05
2023-04-27T02:57:49.958Z,5.07
2023-04-27T02:58:49.924Z,5.14
2023-04-27T02:59:49.900Z,5.15
2023-04-27T03:00:49.951Z,5.20
2023-04-27T03:01:49.946Z,5.12
2023-04-27T03:02:50.007Z,5.15
2023-04-27T03:03:49.965Z,5.18
2023-04-27T03:04:49.959Z,5.21
2023-04-27T03:05:49.908Z,5.15
2023-04-27T03:06:49.863Z,5.14
2023-04-27T03:07:49.857Z,5.20
2023-04-27T03:08:49.908Z,5.18
2023-04-27T03:09:49.929Z,5.25
2023-04-27T03:10:49.850Z,5.23
2023-04-27T03:11:49.802Z,5.14
2023-04-27T03:12:49.836Z,5.26
2023-04-27T03:13:49.812Z,5.28
2023-04-27T03:14:49.812Z,5.21
2023-04-27T03:15:49.804Z,5.26
2023-04-27T03:16:49.849Z,5.18
2023-04-27T03:17:49.806Z,5.21
2023-04-27T03:18:49.772Z,5.23
2023-04-27T03:19:49.751Z,5.17
2023-04-27T03:20:49.785Z,5.14
2023-04-27T03:21:49.757Z,5.21
2023-04-27T03:22:49.735Z,5.15
2023-04-27T03:23:49.758Z,5.17
2023-04-27T03:24:49.720Z,5.15
2023-04-27T03:25:49.709Z,5.17
2023-04-27T03:26:49.731Z,5.12
2023-04-27T03:27:49.721Z,5.18
2023-04-27T03:28:49.709Z,5.14
2023-04-27T03:29:49.684Z,5.21
2023-04-27T03:30:49.675Z,5.21
2023-04-27T03:31:49.701Z,5.15
2023-04-27T03:32:49.703Z,5.15
2023-04-27T03:33:49.653Z,5.21
2023-04-27T03:34:49.648Z,5.11
2023-04-27T03:35:50.344Z,5.02
2023-04-27T03:36:50.361Z,5.10
2023-04-27T03:37:50.385Z,5.10
2023-04-27T03:38:49.660Z,5.07
2023-04-27T03:39:49.606Z,5.15
2023-04-27T03:40:49.608Z,5.11
2023-04-27T03:41:49.651Z,5.12
2023-04-27T03:42:49.637Z,5.12
2023-04-27T03:43:49.576Z,5.11
2023-04-27T03:44:49.602Z,5.11
2023-04-27T03:45:49.632Z,5.02
2023-04-27T04:02:09.143Z,4.99
2023-04-27T04:03:09.197Z,4.92
2023-04-27T04:04:09.209Z,4.82
2023-04-27T04:05:09.099Z,4.94
2023-04-27T04:06:10.326Z,4.94
2023-04-27T04:07:10.183Z,5.04
2023-04-27T04:08:10.179Z,4.99
2023-04-27T04:09:10.164Z,4.96
2023-04-27T04:10:10.225Z,4.97
2023-04-27T04:11:10.182Z,5.05
2023-04-27T04:12:10.204Z,5.05
2023-04-27T04:13:10.178Z,5.05
2023-04-27T04:14:10.157Z,5.05
2023-04-27T04:15:11.320Z,5.28
2023-04-27T04:16:10.244Z,5.21
2023-04-27T04:17:10.123Z,5.23
2023-04-27T04:18:10.215Z,5.26
2023-04-27T04:19:10.131Z,5.25
2023-04-27T04:20:10.093Z,5.17
2023-04-27T04:21:10.135Z,5.20
2023-04-27T04:22:10.120Z,5.14
2023-04-27T04:23:10.086Z,5.11
2023-04-27T04:24:10.079Z,5.21
2023-04-27T04:25:10.079Z,5.04
2023-04-27T04:26:10.103Z,5.18
2023-04-27T04:27:10.095Z,5.21
2023-04-27T04:28:10.078Z,5.18
2023-04-27T04:29:11.093Z,5.11
2023-04-27T04:30:11.867Z,5.10
2023-04-27T04:31:10.037Z,5.17
2023-04-27T04:32:10.031Z,5.20
2023-04-27T04:33:10.004Z,5.25
2023-04-27T04:34:10.072Z,5.18
2023-04-27T04:35:10.021Z,5.25
2023-04-27T04:36:10.004Z,5.23
2023-04-27T04:37:09.971Z,5.25
2023-04-27T04:38:09.984Z,5.18
2023-04-27T04:39:09.970Z,5.25
2023-04-27T04:40:09.986Z,5.26
2023-04-27T04:41:09.990Z,5.30
2023-04-27T04:42:09.941Z,5.28
2023-04-27T04:43:09.950Z,5.35
2023-04-27T04:44:09.921Z,5.25
2023-04-27T04:45:09.933Z,5.41
2023-04-27T04:46:09.947Z,5.25
2023-04-27T04:47:09.922Z,5.35
2023-04-27T04:48:09.890Z,5.38
2023-04-27T04:49:09.901Z,5.46
2023-04-27T04:50:09.892Z,5.46
2023-04-27T04:51:09.898Z,5.39
2023-04-27T04:52:09.924Z,5.44
2023-04-27T04:53:09.878Z,5.47
2023-04-27T04:54:09.890Z,5.46
2023-04-27T04:55:09.903Z,5.48
2023-04-27T04:56:09.884Z,5.48
2023-04-27T04:57:09.867Z,5.43
2023-04-27T04:58:09.873Z,5.47
2023-04-27T04:59:11.920Z,5.56
2023-04-27T05:00:10.851Z,5.48
2023-04-27T05:01:09.886Z,5.51
2023-04-27T05:02:09.849Z,5.59
2023-04-27T05:03:10.040Z,5.65
2023-04-27T05:04:09.978Z,5.71
2023-04-27T05:05:09.818Z,5.73
2023-04-27T05:06:09.770Z,5.73
2023-04-27T05:07:09.951Z,5.69
2023-04-27T05:08:10.742Z,5.73
2023-04-27T05:09:09.729Z,5.61
2023-04-27T05:10:09.732Z,5.51
2023-04-27T05:11:09.723Z,5.56
2023-04-27T05:12:09.708Z,5.51
2023-04-27T05:13:09.685Z,5.50
2023-04-27T05:14:09.710Z,5.51
2023-04-27T05:15:09.707Z,5.53
2023-04-27T05:16:09.749Z,5.59
2023-04-27T05:17:09.717Z,5.65
2023-04-27T05:18:09.806Z,5.72
2023-04-27T05:19:09.657Z,5.76
2023-04-27T05:20:09.637Z,5.80
2023-04-27T05:21:09.645Z,5.75
2023-04-27T05:22:09.648Z,5.80
2023-04-27T05:23:09.666Z,5.73
2023-04-27T05:24:09.629Z,5.76
2023-04-27T05:25:09.616Z,5.68
2023-04-27T05:26:09.600Z,5.75
2023-04-27T05:27:09.631Z,5.76
2023-04-27T05:28:09.629Z,5.76
2023-04-27T05:29:09.630Z,5.73
2023-04-27T05:30:09.578Z,5.80
2023-04-27T05:31:09.631Z,5.80
2023-04-27T05:32:09.695Z,5.76
2023-04-27T05:33:09.663Z,5.71
2023-04-27T05:34:09.593Z,5.90
2023-04-27T05:35:09.539Z,5.89
2023-04-27T05:36:09.561Z,6.44
2023-04-27T05:37:09.540Z,6.70
2023-04-27T05:38:09.537Z,6.59
2023-04-27T05:39:09.576Z,6.67
2023-04-27T05:40:09.588Z,6.57
2023-04-27T05:41:09.549Z,6.85
2023-04-27T05:42:09.545Z,6.88
2023-04-27T05:43:09.484Z,6.89
2023-04-27T05:44:09.484Z,6.92
2023-04-27T05:45:09.506Z,7.06
2023-04-27T05:46:09.494Z,7.29
2023-04-27T05:47:09.454Z,7.56
2023-04-27T05:48:09.437Z,8.08
2023-04-27T05:49:09.461Z,8.84
2023-04-27T05:50:09.469Z,9.64
2023-04-27T05:51:09.433Z,10.19
2023-04-27T05:52:09.422Z,10.57
2023-04-27T05:53:09.407Z,10.28
2023-04-27T05:54:09.410Z,9.25
2023-04-27T05:55:10.325Z,8.66
2023-04-27T05:56:09.412Z,8.53
2023-04-27T05:57:09.377Z,8.37
2023-04-27T05:58:09.540Z,8.64
2023-04-27T05:59:09.388Z,8.55
2023-04-27T06:00:09.387Z,8.44
2023-04-27T06:01:09.362Z,8.48
2023-04-27T06:02:09.368Z,8.24
2023-04-27T06:03:09.522Z,8.00
2023-04-27T06:04:09.498Z,7.90
2023-04-27T06:05:09.373Z,7.85
2023-04-27T06:06:09.306Z,7.76
2023-04-27T06:07:10.271Z,7.51
2023-04-27T06:08:09.309Z,7.48
2023-04-27T06:09:09.337Z,7.48
2023-04-27T06:10:09.819Z,7.39
2023-04-27T06:11:09.307Z,7.54
2023-04-27T06:12:10.276Z,7.76
2023-04-27T06:13:09.911Z,8.26
2023-04-27T06:14:09.300Z,8.95
2023-04-27T06:15:09.268Z,9.74
2023-04-27T06:16:09.264Z,9.98
2023-04-27T06:17:09.230Z,9.65
2023-04-27T06:18:09.240Z,9.84
2023-04-27T06:19:09.428Z,10.34
2023-04-27T06:20:09.209Z,10.16
2023-04-27T06:21:09.191Z,9.65
2023-04-27T06:22:09.181Z,9.44
2023-04-27T06:23:09.238Z,9.25
2023-04-27T06:24:09.196Z,9.06
2023-04-27T06:25:09.181Z,9.40
2023-04-27T06:26:09.186Z,9.34
2023-04-27T06:27:09.198Z,9.25
2023-04-27T06:28:09.153Z,9.11
2023-04-27T06:29:09.163Z,9.06
2023-04-27T06:30:09.666Z,9.11
2023-04-27T06:31:09.175Z,9.11
2023-04-27T06:32:09.149Z,8.95
2023-04-27T06:33:09.206Z,9.41
2023-04-27T06:34:09.115Z,9.46
2023-04-27T06:35:09.141Z,9.10
2023-04-27T06:36:09.137Z,8.85
2023-04-27T06:37:09.827Z,8.51
2023-04-27T06:38:09.078Z,8.20
2023-04-27T06:39:09.101Z,8.23
2023-04-27T06:40:09.065Z,8.12
2023-04-27T06:41:09.032Z,8.20
2023-04-27T06:42:09.130Z,8.45
2023-04-27T06:43:09.055Z,8.61
2023-04-27T06:44:09.033Z,8.84
2023-04-27T06:45:09.012Z,8.89
2023-04-27T06:46:09.053Z,9.69
2023-04-27T06:47:09.043Z,10.68
2023-04-27T06:48:08.998Z,10.75
2023-04-27T06:49:08.993Z,10.84
2023-04-27T06:50:08.989Z,10.33
2023-04-27T06:51:08.993Z,9.91
2023-04-27T06:52:09.024Z,9.64
2023-04-27T06:53:08.960Z,9.29
2023-04-27T06:54:08.967Z,9.14
2023-04-27T06:55:08.938Z,9.13
2023-04-27T06:56:08.914Z,9.13
2023-04-27T06:57:08.941Z,8.91
2023-04-27T06:58:08.927Z,8.97
2023-04-27T06:59:09.418Z,8.95
2023-04-27T07:00:08.895Z,9.02
2023-04-27T07:01:08.931Z,9.10
2023-04-27T07:02:08.871Z,8.78
2023-04-27T07:03:09.034Z,8.70
2023-04-27T07:04:09.046Z,8.71
2023-04-27T07:05:08.905Z,8.76
2023-04-27T07:06:08.869Z,9.14
2023-04-27T07:07:08.857Z,10.10
2023-04-27T07:08:09.264Z,10.48
2023-04-27T07:09:19.870Z,10.69
2023-04-27T07:10:10.837Z,10.79
2023-04-27T07:11:08.835Z,10.81
2023-04-27T07:12:08.826Z,10.49
2023-04-27T07:13:09.538Z,10.37
2023-04-27T07:14:09.786Z,10.13
2023-04-27T07:15:08.811Z,9.84
2023-04-27T07:16:08.821Z,10.31
2023-04-27T07:17:08.804Z,10.40
2023-04-27T07:18:08.875Z,10.34
2023-04-27T07:19:08.739Z,11.04
2023-04-27T07:20:08.823Z,11.33
2023-04-27T07:21:08.730Z,12.00
2023-04-27T07:22:08.853Z,12.20
2023-04-27T07:23:08.755Z,12.22
2023-04-27T07:24:08.705Z,12.95
2023-04-27T07:25:08.731Z,13.18
2023-04-27T07:26:08.711Z,13.28
2023-04-27T07:27:08.751Z,13.28
2023-04-27T07:28:08.717Z,13.39
2023-04-27T07:29:23.018Z,12.86
2023-04-27T07:30:10.698Z,12.61
2023-04-27T07:31:08.689Z,12.35
2023-04-27T07:32:09.092Z,12.20
2023-04-27T07:33:08.706Z,12.55
2023-04-27T07:34:08.644Z,12.03
2023-04-27T07:35:08.657Z,11.14
2023-04-27T07:36:08.608Z,11.22
2023-04-27T07:37:09.353Z,11.59
2023-04-27T07:38:08.610Z,11.80
2023-04-27T07:39:08.620Z,11.73
2023-04-27T07:40:08.585Z,12.24
2023-04-27T07:41:08.570Z,12.15
2023-04-27T07:42:08.596Z,12.75
2023-04-27T07:43:08.564Z,13.53
2023-04-27T07:44:08.569Z,13.03
2023-04-27T07:45:08.551Z,13.13
2023-04-27T07:46:40.515Z,14.07
2023-04-27T07:47:08.541Z,14.15
2023-04-27T07:48:08.607Z,14.51
2023-04-27T07:49:08.517Z,14.58
2023-04-27T07:50:08.520Z,14.55
2023-04-27T07:51:08.512Z,14.54
2023-04-27T07:52:08.517Z,14.84
2023-04-27T07:53:08.490Z,14.92
2023-04-27T07:54:08.479Z,14.68
2023-04-27T07:55:08.470Z,14.45
2023-04-27T07:56:08.471Z,14.59
2023-04-27T07:57:08.455Z,15.07
2023-04-27T07:58:08.451Z,14.15
2023-04-27T07:59:08.460Z,13.59
2023-04-27T08:00:08.425Z,13.90
2023-04-27T08:01:08.415Z,14.86
2023-04-27T08:02:19.036Z,15.27
2023-04-27T08:03:10.554Z,15.64
2023-04-27T08:04:08.633Z,15.77
2023-04-27T08:05:08.796Z,15.57
2023-04-27T08:06:08.813Z,14.89
2023-04-27T08:07:08.807Z,14.79
2023-04-27T08:08:08.976Z,14.18
2023-04-27T08:09:08.377Z,13.28
2023-04-27T08:10:08.346Z,13.78
2023-04-27T08:11:08.428Z,14.86
2023-04-27T08:12:08.335Z,15.36
2023-04-27T08:13:08.309Z,15.77
2023-04-27T08:14:08.427Z,16.13
2023-04-27T08:15:08.340Z,16.94
2023-04-27T08:16:08.332Z,17.54
2023-04-27T08:17:08.328Z,17.70
2023-04-27T08:18:08.307Z,17.51
2023-04-27T08:19:08.305Z,16.71
2023-04-27T08:20:08.297Z,16.33
2023-04-27T08:21:08.272Z,16.65
2023-04-27T08:22:08.283Z,16.12
2023-04-27T08:23:08.246Z,16.47
2023-04-27T08:24:08.251Z,15.90
2023-04-27T08:25:08.270Z,15.44
2023-04-27T08:26:08.233Z,16.04
2023-04-27T08:27:08.222Z,16.02
2023-04-27T08:28:08.255Z,16.57
2023-04-27T08:29:15.785Z,17.12
2023-04-27T08:30:10.246Z,17.97
2023-04-27T08:31:08.249Z,17.41
2023-04-27T08:32:08.206Z,15.73
2023-04-27T08:33:08.219Z,14.14
2023-04-27T08:34:08.187Z,13.89
2023-04-27T08:35:08.174Z,14.23
2023-04-27T08:36:08.319Z,14.94
2023-04-27T08:37:08.148Z,15.37
2023-04-27T08:38:08.161Z,16.24
2023-04-27T08:39:08.161Z,16.93
2023-04-27T08:40:08.194Z,16.60
2023-04-27T08:41:20.776Z,16.79
2023-04-27T08:42:10.134Z,16.84
2023-04-27T08:43:08.102Z,16.76
2023-04-27T08:44:08.918Z,17.12
2023-04-27T08:45:08.094Z,17.59
2023-04-27T08:46:08.073Z,17.14
2023-04-27T08:47:08.042Z,15.92
2023-04-27T08:48:08.151Z,16.32
2023-04-27T08:49:08.198Z,16.41
2023-04-27T08:50:08.083Z,15.97
2023-04-27T08:51:08.052Z,15.51
2023-04-27T08:52:08.085Z,14.92
2023-04-27T08:53:08.026Z,15.39
2023-04-27T08:54:08.019Z,16.02
2023-04-27T08:55:08.000Z,15.42
2023-04-27T08:56:08.017Z,15.17
2023-04-27T08:57:07.997Z,15.44
2023-04-27T08:58:08.083Z,15.76
2023-04-27T08:59:07.972Z,15.84
2023-04-27T09:00:07.959Z,15.82
2023-04-27T09:01:07.998Z,15.42
2023-04-27T09:02:08.173Z,15.61
2023-04-27T09:03:08.047Z,16.00
2023-04-27T09:04:08.207Z,15.95
2023-04-27T09:05:08.033Z,15.68
2023-04-27T09:06:08.089Z,15.92
2023-04-27T09:07:08.924Z,16.38
2023-04-27T09:08:07.998Z,16.57
2023-04-27T09:09:07.913Z,16.65
2023-04-27T09:10:07.951Z,17.57
2023-04-27T09:11:07.916Z,18.20
2023-04-27T09:12:07.894Z,18.89
2023-04-27T09:13:07.873Z,18.74
2023-04-27T09:14:07.896Z,17.01
2023-04-27T09:15:07.874Z,16.79
2023-04-27T09:16:07.894Z,17.14
2023-04-27T09:17:07.841Z,18.11
2023-04-27T09:18:08.436Z,18.37
2023-04-27T09:19:07.843Z,18.81
2023-04-27T09:20:07.833Z,18.56
2023-04-27T09:21:07.804Z,18.49
2023-04-27T09:22:07.823Z,17.36
2023-04-27T09:23:07.809Z,14.47
2023-04-27T09:24:07.813Z,14.40
2023-04-27T09:25:07.784Z,15.52
2023-04-27T09:26:07.759Z,16.71
2023-04-27T09:27:07.797Z,17.01
2023-04-27T09:28:07.750Z,17.41
2023-04-27T09:29:07.755Z,17.92
2023-04-27T09:30:07.810Z,17.59
2023-04-27T09:31:07.764Z,18.05
2023-04-27T09:32:07.750Z,18.26
2023-04-27T09:33:07.799Z,18.26
2023-04-27T09:34:07.697Z,18.43
2023-04-27T09:35:07.981Z,19.18
2023-04-27T09:36:09.356Z,19.51
2023-04-27T09:37:07.714Z,19.77
2023-04-27T09:38:07.742Z,18.63
2023-04-27T09:39:07.717Z,18.01
2023-04-27T09:40:07.806Z,17.74
2023-04-27T09:41:07.718Z,18.45
2023-04-27T09:42:07.760Z,18.44
2023-04-27T09:43:07.645Z,18.18
2023-04-27T09:44:08.631Z,16.57
2023-04-27T09:45:07.635Z,16.51
2023-04-27T09:46:07.822Z,16.83
2023-04-27T09:47:07.689Z,17.24
2023-04-27T09:48:07.666Z,17.82
2023-04-27T09:49:07.590Z,18.70
2023-04-27T09:50:07.586Z,18.93
2023-04-27T09:51:07.611Z,18.78
2023-04-27T09:52:07.646Z,18.28
2023-04-27T09:53:07.613Z,17.48
2023-04-27T09:54:07.571Z,16.83
2023-04-27T09:55:07.574Z,16.91
2023-04-27T09:56:07.542Z,16.65
2023-04-27T09:57:07.582Z,17.26
2023-04-27T09:58:07.560Z,17.38
2023-04-27T09:59:07.535Z,16.60
2023-04-27T10:00:07.530Z,15.75
2023-04-27T10:01:07.637Z,15.15
2023-04-27T10:02:20.860Z,14.99
2023-04-27T10:03:09.613Z,14.55
2023-04-27T10:04:07.755Z,14.59
2023-04-27T10:05:07.515Z,14.65
2023-04-27T10:06:07.470Z,14.45
2023-04-27T10:07:07.450Z,14.51
2023-04-27T10:08:07.488Z,15.02
2023-04-27T10:09:07.487Z,15.36
2023-04-27T10:10:07.480Z,15.57
2023-04-27T10:11:07.761Z,16.02
2023-04-27T10:12:07.492Z,15.75
2023-04-27T10:13:07.448Z,15.59
2023-04-27T10:14:07.455Z,15.84
2023-04-27T10:15:07.448Z,16.33
2023-04-27T10:16:07.469Z,17.26
2023-04-27T10:17:07.461Z,18.16
2023-04-27T10:18:07.498Z,17.29
2023-04-27T10:19:07.353Z,17.72
2023-04-27T10:20:08.353Z,17.34
2023-04-27T10:21:07.392Z,17.56
2023-04-27T10:22:07.343Z,17.76
2023-04-27T10:23:07.359Z,18.13
2023-04-27T10:24:07.331Z,19.09
2023-04-27T10:25:07.334Z,19.79
2023-04-27T10:26:07.356Z,20.36
2023-04-27T10:27:07.301Z,20.74
2023-04-27T10:28:07.285Z,21.20
2023-04-27T10:29:07.318Z,21.27
2023-04-27T10:30:07.299Z,21.29
2023-04-27T10:31:07.322Z,20.99
2023-04-27T10:32:07.264Z,21.18
2023-04-27T10:33:07.364Z,20.84
2023-04-27T10:34:07.295Z,19.77
2023-04-27T10:35:07.241Z,19.09
2023-04-27T10:36:07.246Z,19.34
2023-04-27T10:37:07.253Z,19.59
2023-04-27T10:38:07.251Z,19.24
2023-04-27T10:39:07.186Z,19.39
2023-04-27T10:40:08.188Z,19.12
2023-04-27T10:41:07.187Z,18.65
2023-04-27T10:42:07.172Z,17.83
2023-04-27T10:43:07.204Z,18.01
2023-04-27T10:44:07.206Z,17.54
2023-04-27T10:45:07.175Z,16.51
2023-04-27T10:46:07.196Z,17.04
2023-04-27T10:47:07.197Z,18.01
2023-04-27T10:48:07.269Z,18.96
2023-04-27T10:49:07.139Z,19.19
2023-04-27T10:50:07.173Z,18.25
2023-04-27T10:51:07.125Z,17.01
2023-04-27T10:52:07.120Z,16.31
2023-04-27T10:53:07.144Z,17.34
2023-04-27T10:54:07.101Z,18.25
2023-04-27T10:55:07.089Z,18.38
2023-04-27T10:56:07.292Z,17.87
2023-04-27T10:57:07.085Z,18.47
2023-04-27T10:58:07.076Z,18.05
2023-04-27T10:59:07.063Z,18.50
2023-04-27T11:00:08.030Z,19.30
2023-04-27T11:01:07.091Z,18.89
2023-04-27T11:02:07.072Z,17.74
2023-04-27T11:03:07.138Z,17.29
2023-04-27T11:04:07.022Z,16.94
2023-04-27T11:05:07.158Z,16.53
2023-04-27T11:06:07.063Z,16.29
2023-04-27T11:07:07.004Z,16.04
2023-04-27T11:08:07.049Z,16.64
2023-04-27T11:09:07.037Z,17.04
2023-04-27T11:10:06.974Z,16.90
2023-04-27T11:11:06.987Z,16.78
2023-04-27T11:12:06.971Z,16.76
2023-04-27T11:13:07.014Z,16.66
2023-04-27T11:14:06.976Z,16.23
2023-04-27T11:15:07.025Z,16.02
2023-04-27T11:16:07.031Z,15.70
2023-04-27T11:17:06.914Z,15.94
2023-04-27T11:18:07.579Z,16.29
2023-04-27T11:19:06.999Z,16.29
2023-04-27T11:20:06.906Z,16.12
2023-04-27T11:21:06.915Z,16.04
2023-04-27T11:22:06.881Z,15.52
2023-04-27T11:23:06.868Z,15.86
2023-04-27T11:24:06.896Z,16.43
2023-04-27T11:25:06.844Z,17.34
2023-04-27T11:26:06.849Z,17.87
2023-04-27T11:27:06.865Z,17.80
2023-04-27T11:28:06.876Z,17.45
2023-04-27T11:29:06.832Z,17.19
2023-04-27T11:30:06.817Z,17.39
2023-04-27T11:31:06.875Z,17.72
2023-04-27T11:32:06.884Z,18.45
2023-04-27T11:33:06.811Z,18.74
2023-04-27T11:34:07.850Z,19.27
2023-04-27T11:35:06.767Z,18.93
2023-04-27T11:36:06.758Z,19.15
2023-04-27T11:37:17.805Z,19.64
2023-04-27T11:38:08.756Z,19.66
2023-04-27T11:39:06.808Z,19.45
2023-04-27T11:40:06.719Z,19.56
2023-04-27T11:41:07.883Z,19.69
2023-04-27T11:42:06.741Z,19.41
2023-04-27T11:43:06.708Z,19.11
2023-04-27T11:44:06.758Z,19.02
2023-04-27T11:45:06.728Z,18.70
2023-04-27T11:46:06.667Z,18.58
2023-04-27T11:47:06.759Z,18.18
2023-04-27T11:48:06.763Z,17.78
2023-04-27T11:49:06.738Z,17.38
2023-04-27T11:50:06.703Z,17.78
2023-04-27T11:51:06.658Z,17.79
2023-04-27T11:52:06.656Z,17.78
2023-04-27T11:53:06.658Z,16.96
2023-04-27T11:54:06.642Z,16.13
2023-04-27T11:55:06.636Z,16.28
2023-04-27T11:56:06.597Z,16.86
2023-04-27T11:57:06.602Z,17.30
2023-04-27T11:58:06.607Z,17.46
2023-04-27T11:59:06.654Z,16.74
2023-04-27T12:00:06.563Z,15.73
2023-04-27T12:01:06.614Z,15.19
2023-04-27T12:02:06.667Z,15.10
2023-04-27T12:03:06.739Z,15.36
2023-04-27T12:04:07.737Z,15.55
2023-04-27T12:05:06.865Z,15.80
2023-04-27T12:06:27.295Z,15.55
2023-04-27T12:07:08.502Z,15.73
2023-04-27T12:08:06.544Z,15.65
2023-04-27T12:09:06.517Z,15.98
2023-04-27T12:10:07.458Z,16.47
2023-04-27T12:11:06.497Z,16.86
2023-04-27T12:12:06.493Z,16.83
2023-04-27T12:13:06.495Z,16.12
2023-04-27T12:14:06.469Z,15.39
2023-04-27T12:15:06.444Z,15.44
2023-04-27T12:16:06.451Z,16.04
2023-04-27T12:17:06.509Z,16.64
2023-04-27T12:18:06.582Z,17.16
2023-04-27T12:19:06.441Z,17.68
2023-04-27T12:20:06.468Z,18.05
2023-04-27T12:21:08.245Z,18.34
2023-04-27T12:22:06.410Z,18.77
2023-04-27T12:23:06.512Z,19.07
2023-04-27T12:24:06.433Z,19.07
2023-04-27T12:25:06.446Z,19.04
2023-04-27T12:26:06.375Z,18.99
2023-04-27T12:27:06.377Z,18.89
2023-04-27T12:28:06.366Z,19.21
2023-04-27T12:29:06.379Z,18.93
2023-04-27T12:30:06.390Z,18.96
2023-04-27T12:31:06.377Z,18.93
2023-04-27T12:32:06.332Z,18.95
2023-04-27T12:33:06.337Z,19.11
2023-04-27T12:34:06.340Z,19.27
2023-04-27T12:35:06.377Z,18.84
2023-04-27T12:36:06.356Z,18.98
2023-04-27T12:37:06.289Z,19.08
2023-04-27T12:38:06.290Z,19.07
2023-04-27T12:39:06.359Z,19.02
2023-04-27T12:40:06.323Z,18.98
2023-04-27T12:41:06.272Z,19.07
2023-04-27T12:42:06.259Z,19.08
2023-04-27T12:43:06.302Z,19.14
2023-04-27T12:44:06.292Z,19.00
2023-04-27T12:45:06.291Z,19.31
2023-04-27T12:46:06.464Z,18.92
2023-04-27T12:47:06.263Z,18.86
2023-04-27T12:48:06.367Z,18.77
2023-04-27T12:49:06.246Z,18.66
2023-04-27T12:50:06.308Z,18.89
2023-04-27T12:51:06.232Z,18.53
2023-04-27T12:52:06.210Z,18.41
2023-04-27T12:53:06.194Z,18.28
2023-04-27T12:54:06.186Z,18.26
2023-04-27T12:55:06.183Z,18.50
2023-04-27T12:56:06.181Z,18.59
2023-04-27T12:57:06.169Z,18.90
2023-04-27T12:58:06.155Z,18.90
2023-04-27T12:59:06.201Z,19.27
2023-04-27T13:00:06.143Z,19.54
2023-04-27T13:01:06.139Z,18.88
2023-04-27T13:02:06.161Z,18.52
2023-04-27T13:03:06.241Z,18.22
2023-04-27T13:04:06.280Z,17.95
2023-04-27T13:05:06.262Z,17.83
2023-04-27T13:06:06.124Z,17.80
2023-04-27T13:07:06.091Z,17.44
2023-04-27T13:08:06.112Z,17.54
2023-04-27T13:09:06.096Z,17.85
2023-04-27T13:10:06.066Z,17.87
2023-04-27T13:11:06.085Z,17.76
2023-04-27T13:12:06.074Z,17.87
2023-04-27T13:13:06.105Z,17.65
2023-04-27T13:14:06.107Z,16.87
2023-04-27T13:15:06.055Z,17.08
2023-04-27T13:16:06.100Z,17.27
2023-04-27T13:17:06.032Z,17.29
2023-04-27T13:18:06.042Z,17.08
2023-04-27T13:19:06.054Z,16.76
2023-04-27T13:20:05.984Z,16.42
2023-04-27T13:21:06.005Z,16.35